sensor_id;sensor_type;location;lat;lon;timestamp;pressure;altitude;pressure_sealevel;temperature;humidity
37694;BME280;23531;50.122;8.644;2023-02-12T00:00:24;102658.97;;;8.76;nan
37694;BME280;23531;50.122;8.644;2023-02-12T00:02:25;102655.16;;;8.78;nan
37694;BME280;23531;50.122;8.644;2023-02-12T00:04:26;102657.25;;;8.84;nan
37694;BME280;23531;50.122;8.644;2023-02-12T00:06:27;102655.03;;;8.80;nan
37694;BME280;23531;50.122;8.644;2023-02-12T00:08:29;102663.94;;;8.80;nan
37694;BME280;23531;50.122;8.644;2023-02-12T00:10:30;102658.00;;;8.77;nan
37694;BME280;23531;50.122;8.644;2023-02-12T00:12:32;102653.63;;;8.76;nan
37694;BME280;23531;50.122;8.644;2023-02-12T00:14:35;102659.56;;;8.79;nan
37694;BME280;23531;50.122;8.644;2023-02-12T00:16:36;102660.97;;;8.73;nan
37694;BME280;23531;50.122;8.644;2023-02-12T00:18:38;102665.75;;;8.70;nan
37694;BME280;23531;50.122;8.644;2023-02-12T00:20:39;102656.31;;;8.76;nan
37694;BME280;23531;50.122;8.644;2023-02-12T00:22:40;102663.34;;;8.86;nan
37694;BME280;23531;50.122;8.644;2023-02-12T00:24:41;102656.69;;;8.90;nan
37694;BME280;23531;50.122;8.644;2023-02-12T00:26:43;102658.09;;;8.94;nan
37694;BME280;23531;50.122;8.644;2023-02-12T00:28:48;102656.13;;;8.96;nan
37694;BME280;23531;50.122;8.644;2023-02-12T00:30:49;102653.84;;;9.01;nan
37694;BME280;23531;50.122;8.644;2023-02-12T00:32:50;102656.53;;;9.01;nan
37694;BME280;23531;50.122;8.644;2023-02-12T00:34:51;102658.81;;;8.87;nan
37694;BME280;23531;50.122;8.644;2023-02-12T00:36:53;102664.47;;;8.84;nan
37694;BME280;23531;50.122;8.644;2023-02-12T00:38:55;102664.75;;;8.71;nan
37694;BME280;23531;50.122;8.644;2023-02-12T00:40:56;102665.75;;;8.70;nan
37694;BME280;23531;50.122;8.644;2023-02-12T00:42:57;102665.47;;;8.73;nan
37694;BME280;23531;50.122;8.644;2023-02-12T00:45:00;102671.13;;;8.70;nan
37694;BME280;23531;50.122;8.644;2023-02-12T00:47:01;102660.09;;;8.73;nan
37694;BME280;23531;50.122;8.644;2023-02-12T00:49:03;102659.28;;;8.63;nan
37694;BME280;23531;50.122;8.644;2023-02-12T00:51:04;102660.41;;;8.60;nan
37694;BME280;23531;50.122;8.644;2023-02-12T00:53:06;102667.19;;;8.55;nan
37694;BME280;23531;50.122;8.644;2023-02-12T00:55:07;102665.50;;;8.54;nan
37694;BME280;23531;50.122;8.644;2023-02-12T00:57:08;102649.13;;;8.57;nan
37694;BME280;23531;50.122;8.644;2023-02-12T00:59:10;102657.72;;;8.80;nan
37694;BME280;23531;50.122;8.644;2023-02-12T01:01:13;102660.72;;;8.57;nan
37694;BME280;23531;50.122;8.644;2023-02-12T01:03:14;102658.72;;;8.50;nan
37694;BME280;23531;50.122;8.644;2023-02-12T01:05:16;102666.34;;;8.54;nan
37694;BME280;23531;50.122;8.644;2023-02-12T01:07:18;102659.16;;;8.55;nan
37694;BME280;23531;50.122;8.644;2023-02-12T01:09:19;102662.41;;;8.68;nan
37694;BME280;23531;50.122;8.644;2023-02-12T01:11:20;102658.13;;;8.75;nan
37694;BME280;23531;50.122;8.644;2023-02-12T01:13:22;102656.88;;;8.60;nan
37694;BME280;23531;50.122;8.644;2023-02-12T01:15:24;102658.00;;;8.67;nan
37694;BME280;23531;50.122;8.644;2023-02-12T01:17:27;102653.91;;;8.63;nan
37694;BME280;23531;50.122;8.644;2023-02-12T01:19:28;102655.47;;;8.56;nan
37694;BME280;23531;50.122;8.644;2023-02-12T01:21:30;102648.25;;;8.47;nan
37694;BME280;23531;50.122;8.644;2023-02-12T01:23:33;102653.09;;;8.53;nan
37694;BME280;23531;50.122;8.644;2023-02-12T01:25:34;102654.34;;;8.68;nan
37694;BME280;23531;50.122;8.644;2023-02-12T01:27:35;102646.97;;;8.70;nan
37694;BME280;23531;50.122;8.644;2023-02-12T01:29:36;102661.53;;;8.58;nan
37694;BME280;23531;50.122;8.644;2023-02-12T01:31:38;102672.72;;;8.44;nan
37694;BME280;23531;50.122;8.644;2023-02-12T01:33:42;102662.09;;;8.52;nan
37694;BME280;23531;50.122;8.644;2023-02-12T01:35:44;102663.81;;;8.53;nan
37694;BME280;23531;50.122;8.644;2023-02-12T01:37:45;102659.84;;;8.57;nan
37694;BME280;23531;50.122;8.644;2023-02-12T01:39:47;102662.09;;;8.52;nan
37694;BME280;23531;50.122;8.644;2023-02-12T01:41:48;102660.41;;;8.51;nan
37694;BME280;23531;50.122;8.644;2023-02-12T01:46:09;102665.03;;;8.29;nan
37694;BME280;23531;50.122;8.644;2023-02-12T01:48:12;102661.00;;;8.35;nan
37694;BME280;23531;50.122;8.644;2023-02-12T01:50:16;102658.00;;;8.48;nan
37694;BME280;23531;50.122;8.644;2023-02-12T01:52:20;102654.06;;;8.42;nan
37694;BME280;23531;50.122;8.644;2023-02-12T01:54:23;102653.38;;;8.40;nan
37694;BME280;23531;50.122;8.644;2023-02-12T01:56:25;102655.78;;;8.43;nan
37694;BME280;23531;50.122;8.644;2023-02-12T01:58:28;102659.13;;;8.35;nan
37694;BME280;23531;50.122;8.644;2023-02-12T02:00:30;102662.66;;;8.36;nan
37694;BME280;23531;50.122;8.644;2023-02-12T02:02:32;102658.00;;;8.48;nan
37694;BME280;23531;50.122;8.644;2023-02-12T02:04:35;102653.63;;;8.47;nan
37694;BME280;23531;50.122;8.644;2023-02-12T02:06:41;102661.81;;;8.35;nan
37694;BME280;23531;50.122;8.644;2023-02-12T02:08:45;102666.59;;;8.22;nan
37694;BME280;23531;50.122;8.644;2023-02-12T02:10:46;102665.44;;;8.15;nan
37694;BME280;23531;50.122;8.644;2023-02-12T02:12:48;102668.13;;;8.25;nan
37694;BME280;23531;50.122;8.644;2023-02-12T02:15:07;102664.31;;;8.27;nan
37694;BME280;23531;50.122;8.644;2023-02-12T02:19:34;102663.34;;;8.28;nan
37694;BME280;23531;50.122;8.644;2023-02-12T02:21:58;102654.06;;;8.32;nan
37694;BME280;23531;50.122;8.644;2023-02-12T02:24:05;102652.09;;;8.44;nan
37694;BME280;23531;50.122;8.644;2023-02-12T02:28:32;102650.81;;;8.48;nan
37694;BME280;23531;50.122;8.644;2023-02-12T02:30:38;102659.56;;;8.41;nan
37694;BME280;23531;50.122;8.644;2023-02-12T02:32:47;102655.06;;;8.31;nan
37694;BME280;23531;50.122;8.644;2023-02-12T02:34:52;102648.09;;;8.29;nan
37694;BME280;23531;50.122;8.644;2023-02-12T02:36:57;102638.25;;;8.29;nan
37694;BME280;23531;50.122;8.644;2023-02-12T02:39:02;102646.88;;;8.33;nan
37694;BME280;23531;50.122;8.644;2023-02-12T02:41:05;102647.16;;;8.40;nan
37694;BME280;23531;50.122;8.644;2023-02-12T02:43:09;102649.13;;;8.37;nan
37694;BME280;23531;50.122;8.644;2023-02-12T02:45:18;102651.63;;;8.20;nan
37694;BME280;23531;50.122;8.644;2023-02-12T02:47:23;102652.75;;;8.17;nan
37694;BME280;23531;50.122;8.644;2023-02-12T02:49:27;102650.22;;;8.25;nan
37694;BME280;23531;50.122;8.644;2023-02-12T02:51:33;102646.00;;;8.23;nan
37694;BME280;23531;50.122;8.644;2023-02-12T02:53:37;102641.78;;;8.20;nan
37694;BME280;23531;50.122;8.644;2023-02-12T02:55:40;102642.75;;;8.19;nan
37694;BME280;23531;50.122;8.644;2023-02-12T02:57:45;102642.63;;;8.30;nan
37694;BME280;23531;50.122;8.644;2023-02-12T02:59:48;102645.69;;;8.26;nan
37694;BME280;23531;50.122;8.644;2023-02-12T03:01:53;102645.06;;;8.33;nan
37694;BME280;23531;50.122;8.644;2023-02-12T03:04:01;102642.88;;;8.18;nan
37694;BME280;23531;50.122;8.644;2023-02-12T03:06:04;102637.53;;;8.27;nan
37694;BME280;23531;50.122;8.644;2023-02-12T03:08:07;102640.69;;;8.32;nan
37694;BME280;23531;50.122;8.644;2023-02-12T03:10:14;102655.75;;;8.24;nan
37694;BME280;23531;50.122;8.644;2023-02-12T03:12:18;102648.69;;;8.23;nan
37694;BME280;23531;50.122;8.644;2023-02-12T03:14:22;102648.69;;;8.23;nan
37694;BME280;23531;50.122;8.644;2023-02-12T03:16:25;102651.63;;;8.20;nan
37694;BME280;23531;50.122;8.644;2023-02-12T03:18:28;102647.97;;;8.30;nan
37694;BME280;23531;50.122;8.644;2023-02-12T03:20:34;102642.06;;;8.36;nan
37694;BME280;23531;50.122;8.644;2023-02-12T03:22:36;102647.44;;;8.36;nan
37694;BME280;23531;50.122;8.644;2023-02-12T03:24:40;102652.78;;;8.36;nan
37694;BME280;23531;50.122;8.644;2023-02-12T03:26:44;102650.09;;;8.36;nan
37694;BME280;23531;50.122;8.644;2023-02-12T03:28:46;102655.19;;;8.40;nan
37694;BME280;23531;50.122;8.644;2023-02-12T03:30:52;102653.22;;;8.32;nan
37694;BME280;23531;50.122;8.644;2023-02-12T03:32:57;102649.09;;;8.28;nan
37694;BME280;23531;50.122;8.644;2023-02-12T03:35:05;102652.91;;;8.25;nan
37694;BME280;23531;50.122;8.644;2023-02-12T03:37:12;102650.66;;;8.30;nan
37694;BME280;23531;50.122;8.644;2023-02-12T03:39:15;102651.94;;;8.36;nan
37694;BME280;23531;50.122;8.644;2023-02-12T03:41:21;102645.72;;;8.35;nan
37694;BME280;23531;50.122;8.644;2023-02-12T03:43:26;102656.16;;;8.29;nan
37694;BME280;23531;50.122;8.644;2023-02-12T03:45:38;102647.00;;;8.41;nan
37694;BME280;23531;50.122;8.644;2023-02-12T03:47:43;102653.09;;;8.43;nan
37694;BME280;23531;50.122;8.644;2023-02-12T03:49:47;102649.97;;;8.38;nan
37694;BME280;23531;50.122;8.644;2023-02-12T03:51:51;102651.94;;;8.36;nan
37694;BME280;23531;50.122;8.644;2023-02-12T03:53:54;102653.38;;;8.40;nan
37694;BME280;23531;50.122;8.644;2023-02-12T03:55:58;102657.72;;;8.51;nan
37694;BME280;23531;50.122;8.644;2023-02-12T03:58:01;102661.53;;;8.58;nan
37694;BME280;23531;50.122;8.644;2023-02-12T04:00:04;102665.91;;;8.59;nan
37694;BME280;23531;50.122;8.644;2023-02-12T04:02:06;102663.53;;;8.65;nan
37694;BME280;23531;50.122;8.644;2023-02-12T04:04:07;102659.25;;;8.72;nan
37694;BME280;23531;50.122;8.644;2023-02-12T04:08:28;102664.91;;;8.69;nan
37694;BME280;23531;50.122;8.644;2023-02-12T04:10:33;102671.25;;;8.59;nan
37694;BME280;23531;50.122;8.644;2023-02-12T04:12:38;102667.47;;;8.61;nan
37694;BME280;23531;50.122;8.644;2023-02-12T04:14:42;102675.94;;;8.47;nan
37694;BME280;23531;50.122;8.644;2023-02-12T04:16:45;102679.59;;;8.36;nan
37694;BME280;23531;50.122;8.644;2023-02-12T04:18:48;102677.47;;;8.30;nan
37694;BME280;23531;50.122;8.644;2023-02-12T04:20:52;102668.72;;;8.28;nan
37694;BME280;23531;50.122;8.644;2023-02-12T04:23:00;102675.63;;;8.31;nan
37694;BME280;23531;50.122;8.644;2023-02-12T04:25:10;102681.88;;;8.31;nan
37694;BME280;23531;50.122;8.644;2023-02-12T04:27:15;102681.00;;;8.31;nan
37694;BME280;23531;50.122;8.644;2023-02-12T04:29:20;102683.13;;;8.37;nan
37694;BME280;23531;50.122;8.644;2023-02-12T04:31:28;102684.56;;;8.31;nan
37694;BME280;23531;50.122;8.644;2023-02-12T04:33:31;102683.25;;;8.35;nan
37694;BME280;23531;50.122;8.644;2023-02-12T04:35:35;102693.97;;;8.35;nan
37694;BME280;23531;50.122;8.644;2023-02-12T04:37:41;102691.13;;;8.27;nan
37694;BME280;23531;50.122;8.644;2023-02-12T04:39:44;102685.50;;;8.21;nan
37694;BME280;23531;50.122;8.644;2023-02-12T04:41:46;102687.63;;;8.36;nan
37694;BME280;23531;50.122;8.644;2023-02-12T04:43:49;102688.94;;;8.42;nan
37694;BME280;23531;50.122;8.644;2023-02-12T04:45:50;102685.25;;;8.53;nan
37694;BME280;23531;50.122;8.644;2023-02-12T04:47:52;102696.13;;;8.61;nan
37694;BME280;23531;50.122;8.644;2023-02-12T04:49:53;102692.44;;;8.62;nan
37694;BME280;23531;50.122;8.644;2023-02-12T04:51:54;102699.06;;;8.58;nan
37694;BME280;23531;50.122;8.644;2023-02-12T04:53:55;102693.72;;;8.48;nan
37694;BME280;23531;50.122;8.644;2023-02-12T04:55:57;102703.91;;;8.45;nan
37694;BME280;23531;50.122;8.644;2023-02-12T04:57:58;102709.78;;;8.38;nan
37694;BME280;23531;50.122;8.644;2023-02-12T05:00:00;102698.19;;;8.28;nan
37694;BME280;23531;50.122;8.644;2023-02-12T05:02:04;102696.41;;;8.38;nan
37694;BME280;23531;50.122;8.644;2023-02-12T05:04:06;102696.69;;;8.55;nan
37694;BME280;23531;50.122;8.644;2023-02-12T05:06:08;102697.53;;;8.55;nan
37694;BME280;23531;50.122;8.644;2023-02-12T05:08:09;102695.84;;;8.54;nan
37694;BME280;23531;50.122;8.644;2023-02-12T05:10:11;102685.53;;;8.59;nan
37694;BME280;23531;50.122;8.644;2023-02-12T05:12:12;102689.06;;;8.50;nan
37694;BME280;23531;50.122;8.644;2023-02-12T05:14:13;102692.47;;;8.33;nan
37694;BME280;23531;50.122;8.644;2023-02-12T05:16:16;102689.81;;;8.02;nan
37694;BME280;23531;50.122;8.644;2023-02-12T05:18:18;102686.28;;;7.92;nan
37694;BME280;23531;50.122;8.644;2023-02-12T05:20:19;102688.28;;;8.00;nan
37694;BME280;23531;50.122;8.644;2023-02-12T05:22:20;102684.31;;;8.04;nan
37694;BME280;23531;50.122;8.644;2023-02-12T05:24:22;102686.34;;;8.21;nan
37694;BME280;23531;50.122;8.644;2023-02-12T05:26:23;102688.03;;;8.22;nan
37694;BME280;23531;50.122;8.644;2023-02-12T05:28:24;102683.78;;;8.10;nan
37694;BME280;23531;50.122;8.644;2023-02-12T05:30:26;102689.56;;;8.15;nan
37694;BME280;23531;50.122;8.644;2023-02-12T05:32:29;102683.22;;;8.16;nan
37694;BME280;23531;50.122;8.644;2023-02-12T05:34:30;102688.59;;;8.16;nan
37694;BME280;23531;50.122;8.644;2023-02-12T05:36:31;102690.00;;;8.20;nan
37694;BME280;23531;50.122;8.644;2023-02-12T05:38:33;102687.19;;;8.12;nan
37694;BME280;23531;50.122;8.644;2023-02-12T05:40:34;102683.50;;;8.13;nan
37694;BME280;23531;50.122;8.644;2023-02-12T05:42:36;102687.19;;;8.12;nan
37694;BME280;23531;50.122;8.644;2023-02-12T05:44:37;102680.66;;;7.95;nan
37694;BME280;23531;50.122;8.644;2023-02-12T05:46:38;102687.44;;;7.99;nan
37694;BME280;23531;50.122;8.644;2023-02-12T05:48:41;102687.59;;;8.08;nan
37694;BME280;23531;50.122;8.644;2023-02-12T05:50:42;102689.88;;;8.12;nan
37694;BME280;23531;50.122;8.644;2023-02-12T05:52:43;102693.66;;;8.10;nan
37694;BME280;23531;50.122;8.644;2023-02-12T05:54:47;102694.22;;;8.13;nan
37694;BME280;23531;50.122;8.644;2023-02-12T05:56:49;102696.03;;;8.13;nan
37694;BME280;23531;50.122;8.644;2023-02-12T05:58:51;102697.19;;;8.10;nan
37694;BME280;23531;50.122;8.644;2023-02-12T06:00:53;102705.22;;;8.10;nan
37694;BME280;23531;50.122;8.644;2023-02-12T06:02:54;102694.38;;;8.12;nan
37694;BME280;23531;50.122;8.644;2023-02-12T06:04:56;102694.50;;;8.10;nan
37694;BME280;23531;50.122;8.644;2023-02-12T06:06:58;102697.84;;;8.02;nan
37694;BME280;23531;50.122;8.644;2023-02-12T06:09:00;102695.75;;;8.06;nan
37694;BME280;23531;50.122;8.644;2023-02-12T06:11:02;102697.47;;;8.17;nan
37694;BME280;23531;50.122;8.644;2023-02-12T06:13:03;102706.09;;;8.20;nan
37694;BME280;23531;50.122;8.644;2023-02-12T06:15:05;102699.75;;;8.31;nan
37694;BME280;23531;50.122;8.644;2023-02-12T06:17:06;102707.47;;;8.24;nan
37694;BME280;23531;50.122;8.644;2023-02-12T06:19:08;102696.47;;;8.08;nan
37694;BME280;23531;50.122;8.644;2023-02-12T06:21:11;102706.06;;;8.11;nan
37694;BME280;23531;50.122;8.644;2023-02-12T06:23:12;102704.13;;;8.22;nan
37694;BME280;23531;50.122;8.644;2023-02-12T06:25:14;102710.03;;;8.16;nan
37694;BME280;23531;50.122;8.644;2023-02-12T06:27:15;102711.72;;;8.27;nan
37694;BME280;23531;50.122;8.644;2023-02-12T06:29:16;102713.16;;;8.21;nan
37694;BME280;23531;50.122;8.644;2023-02-12T06:31:18;102711.59;;;8.28;nan
37694;BME280;23531;50.122;8.644;2023-02-12T06:33:20;102718.97;;;8.36;nan
37694;BME280;23531;50.122;8.644;2023-02-12T06:35:22;102723.56;;;8.24;nan
37694;BME280;23531;50.122;8.644;2023-02-12T06:37:24;102731.47;;;8.16;nan
37694;BME280;23531;50.122;8.644;2023-02-12T06:39:26;102724.84;;;8.11;nan
37694;BME280;23531;50.122;8.644;2023-02-12T06:41:27;102727.06;;;8.06;nan
37694;BME280;23531;50.122;8.644;2023-02-12T06:43:28;102730.44;;;7.98;nan
37694;BME280;23531;50.122;8.644;2023-02-12T06:45:30;102733.41;;;8.05;nan
37694;BME280;23531;50.122;8.644;2023-02-12T06:47:31;102738.63;;;8.06;nan
37694;BME280;23531;50.122;8.644;2023-02-12T06:49:33;102740.78;;;8.12;nan
37694;BME280;23531;50.122;8.644;2023-02-12T06:51:34;102734.00;;;8.08;nan
37694;BME280;23531;50.122;8.644;2023-02-12T06:53:38;102740.31;;;8.07;nan
37694;BME280;23531;50.122;8.644;2023-02-12T06:55:39;102735.13;;;8.15;nan
37694;BME280;23531;50.122;8.644;2023-02-12T06:57:41;102740.50;;;8.25;nan
37694;BME280;23531;50.122;8.644;2023-02-12T06:59:42;102743.75;;;8.28;nan
37694;BME280;23531;50.122;8.644;2023-02-12T07:01:44;102742.81;;;8.39;nan
37694;BME280;23531;50.122;8.644;2023-02-12T07:03:46;102746.78;;;8.45;nan
37694;BME280;23531;50.122;8.644;2023-02-12T07:05:48;102747.56;;;8.26;nan
37694;BME280;23531;50.122;8.644;2023-02-12T07:07:49;102747.69;;;8.24;nan
37694;BME280;23531;50.122;8.644;2023-02-12T07:09:52;102738.88;;;8.33;nan
37694;BME280;23531;50.122;8.644;2023-02-12T07:11:53;102747.06;;;8.32;nan
37694;BME280;23531;50.122;8.644;2023-02-12T07:13:55;102747.00;;;8.22;nan
37694;BME280;23531;50.122;8.644;2023-02-12T07:15:57;102747.81;;;8.13;nan
37694;BME280;23531;50.122;8.644;2023-02-12T07:17:58;102743.47;;;8.22;nan
37694;BME280;23531;50.122;8.644;2023-02-12T07:20:00;102749.69;;;8.22;nan
37694;BME280;23531;50.122;8.644;2023-02-12T07:22:01;102752.75;;;8.08;nan
37694;BME280;23531;50.122;8.644;2023-02-12T07:24:02;102756.00;;;8.12;nan
37694;BME280;23531;50.122;8.644;2023-02-12T07:26:06;102754.56;;;8.08;nan
37694;BME280;23531;50.122;8.644;2023-02-12T07:28:07;102759.66;;;8.01;nan
37694;BME280;23531;50.122;8.644;2023-02-12T07:30:09;102751.41;;;7.93;nan
37694;BME280;23531;50.122;8.644;2023-02-12T07:32:10;102756.25;;;7.99;nan
37694;BME280;23531;50.122;8.644;2023-02-12T07:34:12;102754.28;;;8.01;nan
37694;BME280;23531;50.122;8.644;2023-02-12T07:36:14;102758.81;;;8.10;nan
37694;BME280;23531;50.122;8.644;2023-02-12T07:38:18;102760.94;;;8.16;nan
37694;BME280;23531;50.122;8.644;2023-02-12T07:40:19;102759.84;;;8.28;nan
37694;BME280;23531;50.122;8.644;2023-02-12T07:42:22;102760.94;;;8.26;nan
37694;BME280;23531;50.122;8.644;2023-02-12T07:44:25;102773.00;;;8.31;nan
37694;BME280;23531;50.122;8.644;2023-02-12T07:46:27;102770.31;;;8.31;nan
37694;BME280;23531;50.122;8.644;2023-02-12T07:48:29;102767.16;;;8.26;nan
37694;BME280;23531;50.122;8.644;2023-02-12T07:50:31;102771.53;;;8.27;nan
37694;BME280;23531;50.122;8.644;2023-02-12T07:52:32;102772.88;;;8.33;nan
37694;BME280;23531;50.122;8.644;2023-02-12T07:54:34;102771.53;;;8.27;nan
37694;BME280;23531;50.122;8.644;2023-02-12T07:56:36;102765.25;;;8.38;nan
37694;BME280;23531;50.122;8.644;2023-02-12T07:58:39;102767.22;;;8.36;nan
37694;BME280;23531;50.122;8.644;2023-02-12T08:00:41;102775.44;;;8.44;nan
37694;BME280;23531;50.122;8.644;2023-02-12T08:02:42;102769.63;;;8.49;nan
37694;BME280;23531;50.122;8.644;2023-02-12T08:04:44;102776.97;;;8.47;nan
37694;BME280;23531;50.122;8.644;2023-02-12T08:06:46;102783.16;;;8.47;nan
37694;BME280;23531;50.122;8.644;2023-02-12T08:08:49;102771.47;;;8.48;nan
37694;BME280;23531;50.122;8.644;2023-02-12T08:10:51;102782.31;;;8.47;nan
37694;BME280;23531;50.122;8.644;2023-02-12T08:12:52;102776.16;;;8.46;nan
37694;BME280;23531;50.122;8.644;2023-02-12T08:14:54;102779.22;;;8.42;nan
37694;BME280;23531;50.122;8.644;2023-02-12T08:16:56;102780.34;;;8.49;nan
37694;BME280;23531;50.122;8.644;2023-02-12T08:18:57;102778.25;;;8.52;nan
37694;BME280;23531;50.122;8.644;2023-02-12T08:21:02;102782.63;;;8.53;nan
37694;BME280;23531;50.122;8.644;2023-02-12T08:23:04;102777.28;;;8.53;nan
37694;BME280;23531;50.122;8.644;2023-02-12T08:25:05;102787.88;;;8.55;nan
37694;BME280;23531;50.122;8.644;2023-02-12T08:27:07;102787.56;;;8.58;nan
37694;BME280;23531;50.122;8.644;2023-02-12T08:29:09;102785.19;;;8.55;nan
37694;BME280;23531;50.122;8.644;2023-02-12T08:31:12;102789.25;;;8.59;nan
37694;BME280;23531;50.122;8.644;2023-02-12T08:33:14;102787.41;;;8.50;nan
37694;BME280;23531;50.122;8.644;2023-02-12T08:35:15;102797.88;;;8.53;nan
37694;BME280;23531;50.122;8.644;2023-02-12T08:37:17;102799.97;;;8.49;nan
37694;BME280;23531;50.122;8.644;2023-02-12T08:39:18;102794.22;;;8.54;nan
37694;BME280;23531;50.122;8.644;2023-02-12T08:41:21;102791.94;;;8.59;nan
37694;BME280;23531;50.122;8.644;2023-02-12T08:43:23;102792.25;;;8.56;nan
37694;BME280;23531;50.122;8.644;2023-02-12T08:45:24;102791.66;;;8.62;nan
37694;BME280;23531;50.122;8.644;2023-02-12T08:47:26;102792.50;;;8.53;nan
37694;BME280;23531;50.122;8.644;2023-02-12T08:49:28;102788.34;;;8.29;nan
37694;BME280;23531;50.122;8.644;2023-02-12T08:51:31;102795.38;;;8.21;nan
37694;BME280;23531;50.122;8.644;2023-02-12T08:53:32;102799.53;;;8.34;nan
37694;BME280;23531;50.122;8.644;2023-02-12T08:55:34;102800.41;;;8.54;nan
37694;BME280;23531;50.122;8.644;2023-02-12T08:57:35;102798.16;;;8.50;nan
37694;BME280;23531;50.122;8.644;2023-02-12T08:59:37;102794.75;;;8.48;nan
37694;BME280;23531;50.122;8.644;2023-02-12T09:01:38;102799.72;;;8.62;nan
37694;BME280;23531;50.122;8.644;2023-02-12T09:03:42;102793.09;;;8.56;nan
37694;BME280;23531;50.122;8.644;2023-02-12T09:05:44;102803.56;;;8.29;nan
37694;BME280;23531;50.122;8.644;2023-02-12T09:07:45;102805.97;;;8.22;nan
37694;BME280;23531;50.122;8.644;2023-02-12T09:09:46;102797.31;;;8.09;nan
37694;BME280;23531;50.122;8.644;2023-02-12T09:11:48;102812.06;;;7.94;nan
37694;BME280;23531;50.122;8.644;2023-02-12T09:13:50;102807.25;;;7.88;nan
37694;BME280;23531;50.122;8.644;2023-02-12T09:15:51;102809.94;;;7.88;nan
37694;BME280;23531;50.122;8.644;2023-02-12T09:17:52;102811.66;;;7.98;nan
37694;BME280;23531;50.122;8.644;2023-02-12T09:19:55;102812.94;;;8.04;nan
37694;BME280;23531;50.122;8.644;2023-02-12T09:21:56;102811.84;;;8.16;nan
37694;BME280;23531;50.122;8.644;2023-02-12T09:23:58;102815.63;;;8.34;nan
37694;BME280;23531;50.122;8.644;2023-02-12T09:26:02;102813.38;;;8.49;nan
37694;BME280;23531;50.122;8.644;2023-02-12T09:28:04;102811.16;;;8.54;nan
37694;BME280;23531;50.122;8.644;2023-02-12T09:30:07;102809.47;;;8.72;nan
37694;BME280;23531;50.122;8.644;2023-02-12T09:32:09;102817.97;;;8.87;nan
37694;BME280;23531;50.122;8.644;2023-02-12T09:34:11;102815.28;;;8.78;nan
37694;BME280;23531;50.122;8.644;2023-02-12T09:36:14;102817.78;;;8.60;nan
37694;BME280;23531;50.122;8.644;2023-02-12T09:38:16;102810.56;;;8.51;nan
37694;BME280;23531;50.122;8.644;2023-02-12T09:40:19;102814.38;;;8.58;nan
37694;BME280;23531;50.122;8.644;2023-02-12T09:42:34;102808.91;;;8.69;nan
37694;BME280;23531;50.122;8.644;2023-02-12T09:44:41;102808.88;;;8.59;nan
37694;BME280;23531;50.122;8.644;2023-02-12T09:46:46;102818.63;;;8.60;nan
37694;BME280;23531;50.122;8.644;2023-02-12T09:48:52;102809.91;;;8.68;nan
37694;BME280;23531;50.122;8.644;2023-02-12T09:50:56;102818.94;;;8.67;nan
37694;BME280;23531;50.122;8.644;2023-02-12T09:53:00;102815.66;;;8.54;nan
37694;BME280;23531;50.122;8.644;2023-02-12T09:55:02;102812.25;;;8.52;nan
37694;BME280;23531;50.122;8.644;2023-02-12T09:57:05;102812.97;;;8.54;nan
37694;BME280;23531;50.122;8.644;2023-02-12T09:59:13;102806.78;;;8.63;nan
37694;BME280;23531;50.122;8.644;2023-02-12T10:01:19;102810.03;;;8.66;nan
37694;BME280;23531;50.122;8.644;2023-02-12T10:03:21;102816.25;;;8.67;nan
37694;BME280;23531;50.122;8.644;2023-02-12T10:05:23;102816.25;;;8.86;nan
37694;BME280;23531;50.122;8.644;2023-02-12T10:07:28;102817.09;;;8.87;nan
37694;BME280;23531;50.122;8.644;2023-02-12T10:09:41;102812.59;;;8.87;nan
37694;BME280;23531;50.122;8.644;2023-02-12T10:11:48;102817.69;;;8.90;nan
37694;BME280;23531;50.122;8.644;2023-02-12T10:13:54;102810.19;;;9.03;nan
37694;BME280;23531;50.122;8.644;2023-02-12T10:16:03;102820.63;;;9.06;nan
37694;BME280;23531;50.122;8.644;2023-02-12T10:18:17;102816.97;;;9.07;nan
37694;BME280;23531;50.122;8.644;2023-02-12T10:20:34;102824.88;;;9.09;nan
37694;BME280;23531;50.122;8.644;2023-02-12T10:22:41;102815.69;;;9.21;nan
37694;BME280;23531;50.122;8.644;2023-02-12T10:24:48;102819.38;;;9.10;nan
37694;BME280;23531;50.122;8.644;2023-02-12T10:26:53;102820.50;;;8.98;nan
37694;BME280;23531;50.122;8.644;2023-02-12T10:28:56;102816.81;;;9.09;nan
37694;BME280;23531;50.122;8.644;2023-02-12T10:30:59;102818.94;;;9.05;nan
37694;BME280;23531;50.122;8.644;2023-02-12T10:33:02;102821.19;;;8.81;nan
37694;BME280;23531;50.122;8.644;2023-02-12T10:35:10;102820.78;;;8.76;nan
37694;BME280;23531;50.122;8.644;2023-02-12T10:37:13;102815.69;;;8.73;nan
37694;BME280;23531;50.122;8.644;2023-02-12T10:39:22;102819.06;;;8.75;nan
37694;BME280;23531;50.122;8.644;2023-02-12T10:41:25;102815.81;;;8.81;nan
37694;BME280;23531;50.122;8.644;2023-02-12T10:43:28;102812.44;;;8.98;nan
37694;BME280;23531;50.122;8.644;2023-02-12T10:45:31;102810.19;;;8.94;nan
37694;BME280;23531;50.122;8.644;2023-02-12T10:47:32;102804.94;;;8.92;nan
37694;BME280;23531;50.122;8.644;2023-02-12T10:49:33;102805.97;;;9.01;nan
37694;BME280;23531;50.122;8.644;2023-02-12T10:51:42;102807.06;;;9.18;nan
37694;BME280;23531;50.122;8.644;2023-02-12T10:53:45;102795.19;;;9.30;nan
37694;BME280;23531;50.122;8.644;2023-02-12T10:55:47;102793.22;;;9.32;nan
37694;BME280;23531;50.122;8.644;2023-02-12T10:57:50;102798.97;;;9.46;nan
37694;BME280;23531;50.122;8.644;2023-02-12T10:59:53;102791.75;;;9.57;nan
37694;BME280;23531;50.122;8.644;2023-02-12T11:01:56;102792.69;;;9.65;nan
37694;BME280;23531;50.122;8.644;2023-02-12T11:03:58;102794.66;;;9.73;nan
37694;BME280;23531;50.122;8.644;2023-02-12T11:06:10;102786.00;;;9.79;nan
37694;BME280;23531;50.122;8.644;2023-02-12T11:08:25;102784.88;;;9.72;nan
37694;BME280;23531;50.122;8.644;2023-02-12T11:10:29;102776.06;;;9.52;nan
37694;BME280;23531;50.122;8.644;2023-02-12T11:12:32;102780.00;;;9.48;nan
37694;BME280;23531;50.122;8.644;2023-02-12T11:14:36;102776.34;;;9.49;nan
37694;BME280;23531;50.122;8.644;2023-02-12T11:16:39;102771.09;;;9.57;nan
37694;BME280;23531;50.122;8.644;2023-02-12T11:18:43;102773.47;;;9.60;nan